Time;durP1;ratioP1;P1;durP2;ratioP2;P2;SDS_P1;SDS_P2;PMS_P1;PMS_P2;Temp;Humidity;BMP_temperature;BMP_pressure;BME280_temperature;BME280_humidity;BME280_pressure;Samples;Min_cycle;Max_cycle;Signal;HPM_P1;HPM_P2
2023/04/14 00:00:11;;;;;;;1.10;1.00;;;19.30;44.10;;;;;;5019308;28;20222;-68
2023/04/14 00:02:37;;;;;;;1.33;1.13;;;19.30;44.10;;;;;;5016413;28;20230;-68
2023/04/14 00:05:03;;;;;;;1.23;0.80;;;19.30;44.10;;;;;;5014608;28;20431;-68
2023/04/14 00:07:28;;;;;;;1.00;0.70;;;19.30;44.10;;;;;;5015127;28;20300;-68
2023/04/14 00:09:54;;;;;;;0.80;0.80;;;19.30;44.10;;;;;;5016859;28;20524;-68
2023/04/14 00:12:20;;;;;;;0.90;0.83;;;19.30;44.10;;;;;;5017786;28;20281;-68
2023/04/14 00:14:45;;;;;;;1.00;0.90;;;19.30;44.10;;;;;;5019060;28;20222;-68
2023/04/14 00:17:11;;;;;;;0.80;0.73;;;19.30;44.10;;;;;;5014645;28;20921;-68
2023/04/14 00:19:36;;;;;;;1.00;0.80;;;19.30;44.10;;;;;;5019123;28;20513;-68
2023/04/14 00:22:02;;;;;;;0.77;0.70;;;19.30;44.00;;;;;;5018657;28;20573;-68
2023/04/14 00:24:27;;;;;;;0.80;0.80;;;19.30;44.10;;;;;;5018696;28;20226;-68
2023/04/14 00:26:53;;;;;;;0.87;0.80;;;19.30;44.10;;;;;;5018741;28;20253;-68
2023/04/14 00:29:18;;;;;;;0.97;0.87;;;19.30;44.10;;;;;;5016681;28;20250;-68
2023/04/14 00:31:44;;;;;;;0.90;0.67;;;19.30;44.10;;;;;;5016518;28;20231;-68
2023/04/14 00:34:09;;;;;;;1.10;1.00;;;19.30;44.10;;;;;;5016622;28;20218;-68
2023/04/14 00:36:35;;;;;;;0.80;0.80;;;19.30;44.10;;;;;;5014148;28;20280;-68
2023/04/14 00:39:03;;;;;;;0.80;0.70;;;19.30;44.00;;;;;;5015779;28;20585;-68
2023/04/14 00:41:33;;;;;;;0.80;0.80;;;19.20;44.00;;;;;;5015210;28;20318;-68
2023/04/14 00:44:00;;;;;;;0.80;0.70;;;19.30;44.10;;;;;;5014992;28;20564;-68
2023/04/14 00:46:26;;;;;;;0.93;0.90;;;19.30;44.00;;;;;;5013928;28;20466;-68
2023/04/14 00:48:52;;;;;;;0.80;0.80;;;19.30;44.10;;;;;;5029904;28;21144;-68
2023/04/14 00:51:18;;;;;;;0.73;0.73;;;19.20;43.90;;;;;;5017704;28;20238;-68
2023/04/14 00:53:44;;;;;;;0.80;0.80;;;19.30;44.80;;;;;;5015001;28;21130;-68
2023/04/14 00:56:10;;;;;;;1.10;0.90;;;19.30;44.10;;;;;;5012960;28;20269;-68
2023/04/14 00:58:35;;;;;;;0.90;0.83;;;19.30;44.00;;;;;;5013745;28;20223;-68
2023/04/14 01:01:02;;;;;;;0.87;0.80;;;19.20;44.00;;;;;;5018474;28;20234;-68
2023/04/14 01:03:27;;;;;;;1.10;1.00;;;19.30;44.10;;;;;;5015040;28;20469;-68
2023/04/14 01:05:53;;;;;;;0.87;0.80;;;19.30;44.10;;;;;;5014757;28;20585;-68
2023/04/14 01:08:20;;;;;;;0.90;0.80;;;19.30;44.10;;;;;;5012750;28;20218;-68
2023/04/14 01:11:15;;;;;;;0.97;0.87;;;19.30;44.10;;;;;;5009075;28;20227;-68
2023/04/14 01:14:12;;;;;;;0.70;0.70;;;19.30;44.10;;;;;;5017163;28;20422;-69
2023/04/14 01:16:40;;;;;;;0.90;0.80;;;19.30;44.10;;;;;;5012205;28;20906;-68
2023/04/14 01:19:45;;;;;;;0.90;0.90;;;19.20;44.00;;;;;;5021837;28;20510;-68
2023/04/14 01:22:13;;;;;;;0.80;0.80;;;19.30;44.10;;;;;;5025103;28;20509;-68
2023/04/14 01:24:50;;;;;;;0.93;0.83;;;19.30;44.10;;;;;;5019771;28;20925;-68
2023/04/14 01:27:35;;;;;;;1.13;1.00;;;19.30;44.10;;;;;;5021626;28;20449;-69
2023/04/14 01:30:28;;;;;;;1.10;1.00;;;19.30;44.10;;;;;;5021861;28;20502;-68
2023/04/14 01:32:56;;;;;;;1.00;0.90;;;19.20;44.00;;;;;;5019600;28;20464;-69
2023/04/14 01:35:41;;;;;;;1.00;0.90;;;19.30;44.10;;;;;;5019764;28;21332;-68
2023/04/14 01:38:11;;;;;;;0.80;0.80;;;19.20;44.00;;;;;;5018222;28;20435;-68
2023/04/14 01:40:38;;;;;;;0.70;0.70;;;19.30;44.10;;;;;;5021968;28;20504;-68
2023/04/14 01:43:10;;;;;;;0.90;0.77;;;19.30;44.10;;;;;;5023280;28;20824;-68
2023/04/14 01:45:43;;;;;;;1.20;0.80;;;19.30;44.10;;;;;;5024032;28;20963;-68
2023/04/14 01:48:09;;;;;;;0.90;0.80;;;19.30;44.10;;;;;;5022192;28;20465;-68
2023/04/14 01:50:36;;;;;;;0.77;0.73;;;19.30;44.10;;;;;;5019915;28;20475;-68
2023/04/14 01:53:05;;;;;;;0.80;0.60;;;19.30;44.10;;;;;;5018326;28;20479;-69
2023/04/14 01:55:32;;;;;;;0.70;0.70;;;19.20;44.00;;;;;;5025004;28;20514;-69
2023/04/14 01:57:59;;;;;;;0.87;0.87;;;19.30;44.30;;;;;;5021104;28;20561;-68
2023/04/14 02:00:26;;;;;;;0.97;0.70;;;19.30;44.10;;;;;;5024480;28;20844;-68
2023/04/14 02:02:53;;;;;;;1.10;1.00;;;19.30;44.10;;;;;;5016988;28;21286;-68
2023/04/14 02:05:20;;;;;;;0.73;0.70;;;19.30;44.10;;;;;;5022249;28;20468;-68
2023/04/14 02:07:47;;;;;;;1.00;0.90;;;19.30;44.10;;;;;;5021550;28;20485;-68
2023/04/14 02:10:15;;;;;;;0.97;0.80;;;19.30;44.10;;;;;;5015083;28;20501;-69
2023/04/14 02:12:42;;;;;;;0.80;0.80;;;19.30;44.00;;;;;;5022103;28;21046;-68
2023/04/14 02:15:12;;;;;;;0.80;0.80;;;19.30;44.10;;;;;;5020024;28;20452;-69
2023/04/14 02:17:42;;;;;;;0.70;0.70;;;19.30;44.10;;;;;;5019513;28;20553;-68
2023/04/14 02:20:09;;;;;;;0.80;0.80;;;19.30;44.10;;;;;;5022896;28;20447;-69
2023/04/14 02:22:35;;;;;;;2.53;1.00;;;19.20;44.00;;;;;;5020374;28;20438;-69
2023/04/14 02:25:01;;;;;;;1.27;1.10;;;19.30;44.00;;;;;;5018756;28;20802;-69
2023/04/14 02:27:36;;;;;;;0.97;0.90;;;19.30;44.10;;;;;;5015922;28;20830;-69
2023/04/14 02:30:10;;;;;;;1.10;0.80;;;19.30;44.80;;;;;;5015477;28;20239;-69
2023/04/14 02:32:40;;;;;;;0.80;0.80;;;19.30;44.10;;;;;;5017123;28;20470;-69
2023/04/14 02:35:12;;;;;;;0.83;0.80;;;19.30;44.10;;;;;;5016015;28;20489;-68
2023/04/14 02:37:42;;;;;;;1.00;0.90;;;19.20;44.00;;;;;;5013809;28;20529;-68
2023/04/14 02:40:17;;;;;;;0.93;0.87;;;19.20;44.00;;;;;;5014873;28;20487;-69
2023/04/14 02:42:49;;;;;;;0.93;0.83;;;19.30;44.10;;;;;;5017437;28;21043;-69
2023/04/14 02:45:21;;;;;;;1.00;0.80;;;19.20;44.00;;;;;;5020599;28;20459;-69
2023/04/14 02:47:51;;;;;;;1.80;0.80;;;19.20;43.90;;;;;;5015667;28;20460;-68
2023/04/14 02:50:19;;;;;;;1.00;0.90;;;19.30;44.10;;;;;;5018397;28;20479;-69
2023/04/14 02:52:50;;;;;;;1.10;0.70;;;19.30;44.10;;;;;;5016732;28;20511;-69
2023/04/14 02:55:17;;;;;;;0.80;0.80;;;19.20;44.00;;;;;;5019958;28;20494;-69
2023/04/14 02:57:46;;;;;;;0.80;0.73;;;19.30;44.10;;;;;;5018948;28;20427;-69
2023/04/14 03:00:12;;;;;;;1.13;0.93;;;19.30;44.10;;;;;;5014519;28;20618;-68
2023/04/14 03:02:38;;;;;;;0.80;0.80;;;19.30;44.10;;;;;;5017448;28;20449;-69
2023/04/14 03:05:05;;;;;;;1.00;0.90;;;19.30;44.10;;;;;;5020200;28;20471;-69
2023/04/14 03:07:32;;;;;;;0.80;0.80;;;19.20;44.00;;;;;;5019232;28;20308;-69
2023/04/14 03:09:58;;;;;;;0.80;0.70;;;19.30;44.10;;;;;;5015006;28;20476;-69
2023/04/14 03:12:24;;;;;;;0.90;0.70;;;19.20;44.00;;;;;;5018931;28;20468;-68
2023/04/14 03:14:50;;;;;;;0.90;0.80;;;19.20;44.00;;;;;;5007884;28;20277;-69
2023/04/14 03:17:19;;;;;;;0.73;0.73;;;19.20;44.00;;;;;;5009783;28;21140;-69
2023/04/14 03:19:47;;;;;;;0.90;0.80;;;19.20;44.00;;;;;;5015546;28;20233;-69
2023/04/14 03:22:14;;;;;;;1.10;0.80;;;19.30;44.00;;;;;;5011705;28;20893;-69
2023/04/14 03:24:41;;;;;;;0.90;0.90;;;19.30;44.10;;;;;;5014135;28;20415;-69
2023/04/14 03:27:13;;;;;;;1.13;0.80;;;19.20;44.00;;;;;;5014677;28;20468;-69
2023/04/14 03:29:43;;;;;;;0.80;0.70;;;19.30;44.10;;;;;;5024906;28;20865;-70
2023/04/14 03:32:10;;;;;;;1.00;0.90;;;19.20;44.00;;;;;;5011094;28;20465;-69
2023/04/14 03:34:40;;;;;;;1.03;0.80;;;19.20;44.00;;;;;;5016946;28;20460;-69
2023/04/14 03:37:07;;;;;;;1.17;1.07;;;19.20;43.90;;;;;;5010459;28;20438;-69
2023/04/14 03:39:37;;;;;;;0.80;0.77;;;19.30;44.10;;;;;;5011576;28;20450;-68
2023/04/14 03:42:06;;;;;;;0.80;0.77;;;19.30;44.10;;;;;;5015927;28;20460;-69
2023/04/14 03:44:35;;;;;;;0.77;0.77;;;19.30;44.10;;;;;;5012989;28;20447;-69
2023/04/14 03:47:02;;;;;;;1.00;0.80;;;19.20;44.00;;;;;;5011052;28;21027;-68
2023/04/14 03:49:32;;;;;;;0.87;0.70;;;19.30;44.10;;;;;;5015244;28;20476;-69
2023/04/14 03:52:02;;;;;;;0.90;0.80;;;19.30;44.10;;;;;;5012765;28;20472;-69
2023/04/14 03:54:31;;;;;;;1.27;1.17;;;19.30;44.10;;;;;;5009923;28;20468;-69
2023/04/14 03:56:57;;;;;;;1.00;0.80;;;19.30;44.10;;;;;;5015330;28;21134;-69
2023/04/14 03:59:26;;;;;;;1.10;0.90;;;19.20;44.00;;;;;;5009660;28;20442;-69
2023/04/14 04:01:53;;;;;;;0.80;0.80;;;19.20;44.00;;;;;;5007768;28;20444;-69
2023/04/14 04:04:20;;;;;;;1.00;0.90;;;19.20;44.00;;;;;;5010772;28;20451;-68
2023/04/14 04:06:45;;;;;;;0.80;0.80;;;19.20;44.00;;;;;;5012536;28;20554;-69
2023/04/14 04:09:16;;;;;;;0.90;0.90;;;19.20;44.00;;;;;;5008603;28;20848;-69
2023/04/14 04:11:46;;;;;;;1.00;0.90;;;19.20;44.00;;;;;;5009021;28;20765;-69
2023/04/14 04:14:13;;;;;;;0.70;0.70;;;19.20;44.00;;;;;;5008229;28;20555;-70
2023/04/14 04:16:41;;;;;;;0.80;0.67;;;19.20;44.00;;;;;;5015548;28;20430;-69
2023/04/14 04:19:09;;;;;;;1.23;0.80;;;19.20;44.00;;;;;;5016343;28;20459;-69
2023/04/14 04:21:38;;;;;;;0.80;0.73;;;19.20;44.00;;;;;;5010811;28;20450;-69
2023/04/14 04:24:06;;;;;;;0.90;0.80;;;19.20;44.00;;;;;;5014519;28;20455;-69
2023/04/14 04:26:33;;;;;;;1.30;0.90;;;19.20;44.00;;;;;;5018399;28;20447;-69
2023/04/14 04:28:59;;;;;;;0.80;0.70;;;19.20;44.00;;;;;;5012563;28;20484;-69
2023/04/14 04:31:26;;;;;;;0.90;0.80;;;19.20;44.00;;;;;;5014616;28;20461;-69
2023/04/14 04:33:52;;;;;;;0.80;0.80;;;19.20;44.00;;;;;;5016333;28;20227;-69
2023/04/14 04:36:18;;;;;;;0.90;0.80;;;19.20;44.00;;;;;;5017240;28;20426;-69
2023/04/14 04:38:44;;;;;;;0.83;0.73;;;19.20;44.00;;;;;;5010567;28;20223;-69
2023/04/14 04:41:22;;;;;;;1.00;0.73;;;19.20;44.00;;;;;;5016103;28;20921;-68
2023/04/14 04:43:48;;;;;;;0.80;0.80;;;19.20;44.00;;;;;;5012271;28;20235;-67
2023/04/14 04:46:20;;;;;;;0.73;0.70;;;19.20;44.00;;;;;;5014680;28;20986;-69
2023/04/14 04:48:49;;;;;;;0.73;0.63;;;19.20;44.10;;;;;;5004463;28;20236;-69
2023/04/14 04:51:16;;;;;;;2.70;0.80;;;19.20;44.00;;;;;;4928171;28;20478;-69
2023/04/14 04:53:42;;;;;;;1.00;0.90;;;19.20;44.00;;;;;;5003923;28;20485;-69
2023/04/14 04:56:07;;;;;;;1.07;0.90;;;19.30;44.10;;;;;;5008602;28;20446;-69
2023/04/14 04:58:33;;;;;;;0.93;0.77;;;19.30;44.10;;;;;;5016504;28;20227;-69
2023/04/14 05:00:58;;;;;;;0.77;0.77;;;19.30;44.00;;;;;;5011174;28;20227;-70
2023/04/14 05:03:24;;;;;;;2.33;0.80;;;19.30;44.80;;;;;;5015317;28;20219;-69
2023/04/14 05:05:50;;;;;;;0.77;0.77;;;19.30;44.00;;;;;;5014327;28;20225;-69
2023/04/14 05:08:15;;;;;;;0.80;0.70;;;19.20;44.00;;;;;;5019185;28;20263;-69
2023/04/14 05:10:41;;;;;;;1.00;0.90;;;19.20;43.90;;;;;;5015733;28;20238;-68
2023/04/14 05:13:06;;;;;;;1.23;0.70;;;19.30;44.00;;;;;;5013054;28;20272;-68
2023/04/14 05:15:32;;;;;;;0.97;0.87;;;19.30;44.10;;;;;;5010511;28;20306;-68
2023/04/14 05:17:57;;;;;;;0.80;0.70;;;19.20;44.00;;;;;;5009847;28;20214;-68
2023/04/14 05:20:23;;;;;;;1.50;0.90;;;19.30;44.10;;;;;;5011689;28;20562;-67
2023/04/14 05:22:49;;;;;;;0.70;0.70;;;19.20;44.00;;;;;;5015136;28;20256;-68
2023/04/14 05:25:14;;;;;;;1.33;0.70;;;19.30;44.10;;;;;;5011201;28;20750;-68
2023/04/14 05:27:40;;;;;;;1.00;0.80;;;19.30;44.10;;;;;;5010413;28;20341;-68
2023/04/14 05:30:06;;;;;;;1.00;0.87;;;19.30;44.10;;;;;;5010097;28;20230;-68
2023/04/14 05:32:32;;;;;;;0.80;0.70;;;19.30;44.10;;;;;;5007119;28;20210;-67
2023/04/14 05:34:57;;;;;;;0.83;0.83;;;19.20;44.00;;;;;;5003359;28;20422;-67
2023/04/14 05:37:23;;;;;;;0.90;0.90;;;19.20;44.00;;;;;;5013503;28;20306;-68
2023/04/14 05:39:49;;;;;;;1.00;0.93;;;19.30;44.90;;;;;;5013803;28;20230;-67
2023/04/14 05:42:14;;;;;;;1.00;0.90;;;19.30;44.10;;;;;;5007948;28;20253;-68
2023/04/14 05:44:40;;;;;;;0.80;0.70;;;19.30;44.10;;;;;;5008136;28;20238;-68
2023/04/14 05:47:05;;;;;;;0.77;0.73;;;19.30;44.00;;;;;;5001406;28;20236;-68
2023/04/14 05:49:31;;;;;;;2.27;0.80;;;19.20;44.00;;;;;;5008930;28;20223;-68
2023/04/14 05:51:56;;;;;;;0.90;0.80;;;19.20;43.90;;;;;;5007717;28;20707;-68
2023/04/14 05:54:22;;;;;;;1.23;1.13;;;19.30;44.10;;;;;;5007438;28;21015;-68
2023/04/14 05:56:48;;;;;;;1.00;0.90;;;19.30;44.10;;;;;;5008838;28;20234;-68
2023/04/14 05:59:15;;;;;;;0.83;0.70;;;19.30;44.10;;;;;;5006849;28;20336;-69
2023/04/14 06:01:40;;;;;;;0.80;0.70;;;19.30;44.10;;;;;;5013237;28;20222;-68
2023/04/14 06:04:06;;;;;;;0.80;0.80;;;19.30;44.10;;;;;;5013305;28;20457;-68
2023/04/14 06:06:31;;;;;;;0.80;0.80;;;19.30;44.10;;;;;;5012434;28;20233;-69
2023/04/14 06:08:57;;;;;;;0.90;0.80;;;19.30;44.10;;;;;;5004153;28;20667;-68
2023/04/14 06:11:22;;;;;;;0.70;0.70;;;19.30;44.10;;;;;;5005397;28;20277;-68
2023/04/14 06:13:49;;;;;;;0.80;0.70;;;19.20;44.00;;;;;;5015015;28;20763;-68
2023/04/14 06:16:14;;;;;;;0.80;0.70;;;19.20;44.00;;;;;;5009050;28;20699;-68
2023/04/14 06:18:40;;;;;;;3.50;0.83;;;19.20;44.00;;;;;;5009022;28;20433;-68
2023/04/14 06:21:06;;;;;;;2.30;1.00;;;19.20;44.00;;;;;;5013365;28;20222;-68
2023/04/14 06:23:32;;;;;;;1.20;0.93;;;19.30;44.10;;;;;;5014079;28;20742;-68
2023/04/14 06:25:57;;;;;;;0.90;0.90;;;19.20;44.00;;;;;;5015023;28;20426;-68
2023/04/14 06:28:24;;;;;;;0.80;0.70;;;19.30;44.10;;;;;;5017117;28;20272;-68
2023/04/14 06:30:50;;;;;;;1.10;1.00;;;19.30;44.10;;;;;;5010820;28;20723;-68
2023/04/14 06:33:16;;;;;;;1.03;0.80;;;19.30;44.10;;;;;;5010029;28;20465;-68
2023/04/14 06:35:42;;;;;;;1.10;0.77;;;19.30;44.10;;;;;;5009776;28;20235;-68
2023/04/14 06:38:08;;;;;;;1.57;0.90;;;19.30;44.10;;;;;;5009806;28;20222;-68
2023/04/14 06:40:33;;;;;;;0.77;0.70;;;19.30;44.10;;;;;;5015000;28;20488;-68
2023/04/14 06:42:59;;;;;;;1.10;1.00;;;19.30;44.10;;;;;;5010372;28;20233;-68
2023/04/14 06:45:25;;;;;;;0.80;0.70;;;19.30;44.10;;;;;;5011231;28;20229;-68
2023/04/14 06:47:50;;;;;;;0.70;0.70;;;19.30;44.10;;;;;;5015996;28;20611;-67
2023/04/14 06:50:16;;;;;;;0.80;0.80;;;19.30;44.10;;;;;;5011081;28;20230;-68
2023/04/14 06:52:41;;;;;;;0.80;0.80;;;19.30;44.10;;;;;;5010690;28;20235;-68
2023/04/14 06:55:07;;;;;;;0.90;0.80;;;19.20;44.00;;;;;;5013214;28;20241;-68
2023/04/14 06:57:33;;;;;;;0.97;0.80;;;19.30;44.00;;;;;;5011469;28;20230;-68
2023/04/14 06:59:58;;;;;;;0.87;0.87;;;19.20;44.00;;;;;;5003875;28;20450;-71
2023/04/14 07:02:24;;;;;;;0.80;0.80;;;19.20;44.00;;;;;;5005949;28;20228;-67
2023/04/14 07:04:50;;;;;;;0.90;0.80;;;19.30;44.10;;;;;;5011030;28;20312;-67
2023/04/14 07:07:15;;;;;;;1.10;0.87;;;19.30;44.10;;;;;;5009453;28;20226;-67
2023/04/14 07:09:42;;;;;;;0.80;0.73;;;19.30;44.00;;;;;;5006095;28;20235;-67
2023/04/14 07:12:15;;;;;;;0.80;0.70;;;19.30;44.00;;;;;;5002134;28;20226;-67
2023/04/14 07:14:41;;;;;;;1.00;0.83;;;19.30;44.00;;;;;;5009579;28;20557;-68
2023/04/14 07:17:07;;;;;;;0.80;0.73;;;19.30;44.10;;;;;;5011410;28;20435;-67
2023/04/14 07:19:33;;;;;;;1.47;0.80;;;19.30;44.10;;;;;;5005161;28;20460;-68
2023/04/14 07:21:59;;;;;;;0.80;0.80;;;19.20;43.90;;;;;;5009576;28;20460;-67
2023/04/14 07:24:24;;;;;;;0.87;0.87;;;19.30;44.10;;;;;;5009751;28;20726;-70
2023/04/14 07:26:50;;;;;;;0.90;0.80;;;19.30;44.10;;;;;;5009000;28;20253;-68
2023/04/14 07:29:15;;;;;;;1.20;1.10;;;19.30;44.80;;;;;;5012010;28;20824;-67
2023/04/14 07:31:41;;;;;;;1.30;1.13;;;19.30;44.00;;;;;;5010128;28;20222;-66
2023/04/14 07:34:07;;;;;;;0.80;0.80;;;19.30;44.00;;;;;;5007768;28;20280;-67
2023/04/14 07:36:33;;;;;;;0.97;0.83;;;19.30;44.10;;;;;;5010275;28;20253;-67
2023/04/14 07:38:58;;;;;;;0.93;0.83;;;19.30;44.00;;;;;;5011045;28;20417;-70
2023/04/14 07:41:25;;;;;;;1.00;0.90;;;19.30;44.00;;;;;;5008018;28;20816;-68
2023/04/14 07:43:54;;;;;;;0.87;0.73;;;19.30;44.00;;;;;;5010855;28;20330;-71
2023/04/14 07:46:20;;;;;;;0.80;0.80;;;19.30;43.90;;;;;;5013934;28;20441;-66
2023/04/14 07:48:45;;;;;;;1.37;0.90;;;19.30;44.00;;;;;;5013543;28;20480;-67
2023/04/14 07:51:11;;;;;;;1.10;0.90;;;19.30;43.90;;;;;;5011815;28;20304;-67
2023/04/14 07:53:41;;;;;;;1.00;0.90;;;19.30;43.90;;;;;;5010284;28;20265;-66
2023/04/14 07:56:06;;;;;;;0.80;0.70;;;19.30;43.90;;;;;;5014284;28;20261;-67
2023/04/14 07:58:32;;;;;;;0.90;0.90;;;19.30;44.00;;;;;;5004831;28;21183;-70
2023/04/14 08:00:57;;;;;;;1.17;1.00;;;19.30;44.10;;;;;;5003993;28;21473;-70
2023/04/14 08:03:23;;;;;;;0.90;0.90;;;19.30;43.80;;;;;;5009968;28;20302;-69
2023/04/14 08:05:48;;;;;;;1.10;1.00;;;19.30;43.90;;;;;;5007510;28;20313;-68
2023/04/14 08:08:14;;;;;;;0.77;0.70;;;19.30;43.20;;;;;;5011760;28;20220;-68
2023/04/14 08:10:40;;;;;;;0.77;0.70;;;19.30;43.80;;;;;;5008508;28;20997;-68
2023/04/14 08:13:06;;;;;;;4.03;1.17;;;19.30;43.90;;;;;;5003071;28;20254;-67
2023/04/14 08:15:31;;;;;;;7.20;1.17;;;19.30;43.80;;;;;;5008660;28;20519;-65
2023/04/14 08:17:57;;;;;;;1.10;0.80;;;19.30;43.80;;;;;;5017647;28;20573;-65
2023/04/14 08:20:22;;;;;;;3.03;0.90;;;19.30;43.80;;;;;;5015449;28;20238;-65
2023/04/14 08:22:48;;;;;;;2.10;1.10;;;19.30;43.80;;;;;;5015338;28;20595;-66
2023/04/14 08:25:14;;;;;;;1.10;0.90;;;19.30;43.70;;;;;;5014989;28;20864;-66
2023/04/14 08:27:40;;;;;;;1.37;1.00;;;19.30;43.70;;;;;;5012488;28;20229;-66
2023/04/14 08:30:06;;;;;;;1.00;0.83;;;19.30;43.70;;;;;;5017682;28;20476;-65
2023/04/14 08:32:32;;;;;;;1.43;1.20;;;19.30;43.60;;;;;;5013406;28;20226;-66
2023/04/14 08:34:58;;;;;;;1.00;0.90;;;19.30;43.60;;;;;;5014044;28;20423;-65
2023/04/14 08:37:23;;;;;;;1.93;1.07;;;19.20;43.40;;;;;;5014847;28;20446;-68
2023/04/14 08:39:49;;;;;;;4.80;0.90;;;19.20;43.30;;;;;;5016181;28;20268;-61
2023/04/14 08:42:20;;;;;;;1.20;0.80;;;19.20;43.20;;;;;;5014477;28;20226;-64
2023/04/14 08:44:46;;;;;;;1.03;0.90;;;19.20;43.20;;;;;;5015510;28;20280;-62
2023/04/14 08:47:13;;;;;;;1.30;0.90;;;19.20;43.20;;;;;;5006108;28;20456;-61
2023/04/14 08:49:49;;;;;;;1.80;1.70;;;19.20;43.10;;;;;;5009179;28;20460;-63
2023/04/14 08:52:17;;;;;;;2.70;1.00;;;19.20;43.10;;;;;;5014632;28;21653;-64
2023/04/14 08:54:45;;;;;;;2.17;1.00;;;19.20;43.10;;;;;;5009243;28;20466;-61
2023/04/14 08:57:17;;;;;;;1.23;1.00;;;19.20;43.10;;;;;;5011874;28;20427;-60
2023/04/14 08:59:42;;;;;;;1.53;1.20;;;19.20;43.10;;;;;;5008235;28;20551;-61
2023/04/14 09:02:09;;;;;;;1.03;0.93;;;19.20;43.10;;;;;;5009163;28;20553;-61
2023/04/14 09:04:36;;;;;;;1.10;1.00;;;19.20;43.10;;;;;;5001550;28;20239;-62
2023/04/14 09:07:02;;;;;;;2.20;1.10;;;19.10;43.00;;;;;;5006661;28;20477;-63
2023/04/14 09:09:29;;;;;;;1.00;0.90;;;19.10;43.00;;;;;;5010031;28;20454;-64
2023/04/14 09:11:56;;;;;;;1.13;1.03;;;19.10;43.00;;;;;;5008969;28;20311;-65
2023/04/14 09:14:22;;;;;;;1.10;1.00;;;19.10;43.00;;;;;;5009601;28;20447;-65
2023/04/14 09:16:52;;;;;;;0.97;0.87;;;19.10;42.90;;;;;;5010227;28;21038;-63
2023/04/14 09:19:19;;;;;;;1.00;0.80;;;19.10;43.10;;;;;;5013801;28;20434;-65
2023/04/14 09:21:44;;;;;;;1.20;1.00;;;19.10;43.00;;;;;;5012828;28;21104;-62
2023/04/14 09:24:10;;;;;;;1.00;0.90;;;19.10;43.00;;;;;;5013075;28;20431;-61
2023/04/14 09:26:36;;;;;;;1.10;1.00;;;19.10;43.00;;;;;;5008944;28;20678;-62
2023/04/14 09:29:02;;;;;;;0.97;0.90;;;19.10;42.90;;;;;;5010262;28;20719;-61
2023/04/14 09:31:27;;;;;;;2.00;1.00;;;19.10;42.90;;;;;;5007570;28;20219;-64
2023/04/14 09:33:53;;;;;;;1.57;0.90;;;19.10;43.60;;;;;;5009898;28;20222;-61
2023/04/14 09:36:23;;;;;;;0.97;0.93;;;19.10;43.00;;;;;;5008925;28;20311;-64
2023/04/14 09:38:50;;;;;;;1.27;0.90;;;19.10;42.90;;;;;;5012581;28;20556;-64
2023/04/14 09:41:24;;;;;;;1.57;0.90;;;19.10;42.90;;;;;;5013177;28;20538;-65
2023/04/14 09:43:51;;;;;;;1.80;0.93;;;19.10;43.70;;;;;;5018162;28;20459;-63
2023/04/14 09:46:17;;;;;;;1.20;1.10;;;19.10;42.90;;;;;;5014070;28;20491;-64
2023/04/14 09:48:53;;;;;;;0.90;0.77;;;19.10;42.90;;;;;;5015695;28;20525;-61
2023/04/14 09:51:37;;;;;;;2.23;1.10;;;19.10;42.80;;;;;;5012930;28;20632;-62
2023/04/14 09:54:04;;;;;;;1.00;0.90;;;19.10;42.80;;;;;;5013655;28;21487;-61
2023/04/14 09:56:30;;;;;;;1.63;1.07;;;19.10;42.90;;;;;;5006967;28;20555;-66
2023/04/14 09:58:58;;;;;;;1.07;0.97;;;19.10;42.90;;;;;;5005972;28;20456;-65
2023/04/14 10:01:30;;;;;;;3.67;0.90;;;19.10;42.80;;;;;;5009889;28;20583;-62
2023/04/14 10:03:55;;;;;;;1.17;0.90;;;19.10;42.80;;;;;;5008597;28;20517;-65
2023/04/14 10:06:23;;;;;;;9.60;2.00;;;19.10;42.70;;;;;;5010780;28;20435;-59
2023/04/14 10:08:52;;;;;;;14.67;1.50;;;19.20;42.80;;;;;;5016842;28;20266;-62
2023/04/14 10:11:28;;;;;;;8.73;1.23;;;19.20;42.70;;;;;;5012391;28;20435;-60
2023/04/14 10:14:04;;;;;;;2.53;1.20;;;19.20;42.70;;;;;;5020732;28;20579;-62
2023/04/14 10:16:31;;;;;;;18.43;2.67;;;19.30;42.80;;;;;;5013032;28;20502;-61
2023/04/14 10:18:57;;;;;;;11.33;1.33;;;19.20;42.70;;;;;;5011665;28;21062;-63
2023/04/14 10:21:23;;;;;;;3.30;1.30;;;19.30;42.80;;;;;;5013952;28;20459;-62
2023/04/14 10:23:49;;;;;;;3.43;1.10;;;19.30;42.70;;;;;;5015320;28;20226;-61
2023/04/14 10:26:16;;;;;;;5.00;1.97;;;19.20;42.70;;;;;;5008791;28;20430;-61
2023/04/14 10:28:50;;;;;;;3.30;1.20;;;19.30;42.70;;;;;;5010597;28;20464;-64
2023/04/14 10:31:26;;;;;;;5.10;1.33;;;19.30;42.80;;;;;;5006707;28;20538;-65
2023/04/14 10:33:52;;;;;;;1.37;1.23;;;19.30;42.70;;;;;;5011666;28;20708;-65
2023/04/14 10:36:26;;;;;;;9.63;1.30;;;19.30;42.80;;;;;;5009633;28;21433;-63
2023/04/14 10:39:00;;;;;;;3.23;1.07;;;19.30;42.80;;;;;;5007959;28;20974;-62
2023/04/14 10:41:27;;;;;;;2.80;1.33;;;19.30;42.80;;;;;;5010497;28;20464;-62
2023/04/14 10:43:52;;;;;;;4.60;1.20;;;19.30;42.80;;;;;;5006825;28;20444;-64
2023/04/14 10:46:18;;;;;;;1.93;1.00;;;19.30;42.90;;;;;;5001679;28;20569;-62
2023/04/14 10:48:47;;;;;;;3.50;1.10;;;19.40;43.00;;;;;;5010873;28;20227;-62
2023/04/14 10:51:16;;;;;;;1.10;1.00;;;19.40;43.00;;;;;;5011953;28;20284;-64
2023/04/14 10:53:46;;;;;;;2.33;1.17;;;19.40;43.00;;;;;;5012980;28;20443;-64
2023/04/14 10:56:12;;;;;;;2.40;1.10;;;19.40;43.00;;;;;;5011684;28;20435;-63
2023/04/14 10:58:38;;;;;;;1.23;1.10;;;19.40;43.00;;;;;;5012975;28;20511;-62
2023/04/14 11:01:32;;;;;;;3.70;1.00;;;19.40;43.00;;;;;;5012195;28;20472;-64
2023/04/14 11:04:19;;;;;;;1.60;1.20;;;19.40;43.00;;;;;;5005290;28;20579;-61
2023/04/14 11:06:51;;;;;;;1.20;0.97;;;19.40;43.10;;;;;;5011185;28;20438;-63
2023/04/14 11:09:37;;;;;;;1.47;1.37;;;19.40;43.00;;;;;;5011529;28;20490;-63
2023/04/14 11:12:23;;;;;;;1.57;1.10;;;19.40;43.00;;;;;;5008520;28;20950;-65
2023/04/14 11:14:53;;;;;;;3.73;1.10;;;19.40;43.00;;;;;;5002286;28;20467;-65
2023/04/14 11:17:23;;;;;;;10.23;1.63;;;19.40;43.10;;;;;;4996616;28;22990;-65
2023/04/14 11:19:54;;;;;;;1.40;1.20;;;19.40;43.00;;;;;;5003266;28;20434;-64
2023/04/14 11:22:40;;;;;;;1.13;1.00;;;19.40;43.10;;;;;;5010867;28;20463;-62
2023/04/14 11:25:07;;;;;;;1.27;1.00;;;19.40;43.00;;;;;;5006193;28;20467;-65
2023/04/14 11:27:33;;;;;;;1.10;1.00;;;19.50;43.10;;;;;;4999631;28;20478;-62
2023/04/14 11:30:00;;;;;;;1.63;1.20;;;19.50;43.10;;;;;;5005661;28;21108;-62
2023/04/14 11:32:25;;;;;;;0.90;0.80;;;19.40;43.00;;;;;;5007471;28;20465;-65
2023/04/14 11:34:51;;;;;;;0.83;0.80;;;19.40;43.00;;;;;;5007897;28;20777;-65
2023/04/14 11:37:16;;;;;;;0.90;0.80;;;19.50;43.10;;;;;;5010268;28;20218;-62
2023/04/14 11:39:42;;;;;;;1.30;1.00;;;19.50;43.10;;;;;;5007187;28;20227;-63
2023/04/14 11:42:08;;;;;;;1.23;0.93;;;19.40;43.00;;;;;;5007632;28;20588;-66
2023/04/14 11:44:33;;;;;;;1.63;1.53;;;19.50;43.10;;;;;;5010919;28;20219;-64
2023/04/14 11:46:59;;;;;;;1.20;1.10;;;19.50;43.10;;;;;;5006909;28;20717;-62
2023/04/14 11:49:35;;;;;;;0.90;0.80;;;19.50;43.10;;;;;;5013366;28;20235;-63
2023/04/14 11:52:07;;;;;;;1.00;0.90;;;19.50;43.10;;;;;;5012954;28;20496;-63
2023/04/14 11:54:37;;;;;;;1.10;1.00;;;19.50;43.10;;;;;;5013112;28;20434;-63
2023/04/14 11:57:08;;;;;;;0.90;0.80;;;19.50;43.10;;;;;;5006773;28;20490;-65
2023/04/14 11:59:45;;;;;;;1.17;1.03;;;19.50;43.20;;;;;;5000784;28;20710;-63
2023/04/14 12:02:20;;;;;;;0.97;0.90;;;19.50;43.10;;;;;;5001932;28;20446;-62
2023/04/14 12:04:48;;;;;;;0.97;0.87;;;19.50;43.20;;;;;;5001531;28;20496;-63
2023/04/14 12:07:16;;;;;;;1.00;0.70;;;19.50;43.20;;;;;;5001070;28;20463;-62
2023/04/14 12:09:43;;;;;;;1.50;1.40;;;19.50;43.20;;;;;;5007085;28;20446;-63
2023/04/14 12:12:13;;;;;;;0.93;0.90;;;19.50;43.20;;;;;;5007425;28;20595;-62
2023/04/14 12:14:44;;;;;;;1.53;0.90;;;19.50;43.20;;;;;;5008574;28;20431;-62
2023/04/14 12:17:10;;;;;;;1.70;0.80;;;19.50;43.20;;;;;;5010825;28;20423;-62
2023/04/14 12:19:36;;;;;;;1.50;0.90;;;19.50;43.20;;;;;;5009536;28;20444;-63
2023/04/14 12:22:04;;;;;;;1.20;0.90;;;19.50;43.20;;;;;;5001241;28;20521;-64
2023/04/14 12:24:37;;;;;;;1.43;1.07;;;19.50;43.20;;;;;;5011471;28;20214;-63
2023/04/14 12:27:05;;;;;;;1.00;0.90;;;19.50;43.20;;;;;;5009594;28;20475;-62
2023/04/14 12:29:37;;;;;;;2.37;0.90;;;19.50;43.20;;;;;;5009252;28;20472;-64
2023/04/14 12:32:13;;;;;;;0.90;0.80;;;19.50;43.20;;;;;;5005930;28;20460;-62
2023/04/14 12:34:39;;;;;;;0.93;0.80;;;19.50;43.20;;;;;;5010806;28;20450;-63
2023/04/14 12:37:09;;;;;;;1.00;0.90;;;19.50;43.30;;;;;;5009552;28;20452;-61
2023/04/14 12:39:58;;;;;;;1.20;0.90;;;19.50;43.30;;;;;;5011084;28;20447;-61
2023/04/14 12:42:26;;;;;;;1.00;0.87;;;19.50;43.20;;;;;;5009704;28;20903;-62
2023/04/14 12:44:59;;;;;;;0.93;0.83;;;19.50;44.00;;;;;;5008957;28;20464;-63
2023/04/14 12:47:32;;;;;;;0.70;0.70;;;19.50;43.30;;;;;;5009579;28;20529;-62
2023/04/14 12:50:19;;;;;;;0.87;0.87;;;19.50;43.30;;;;;;5004047;28;20490;-62